sensor_id;sensor_type;location;lat;lon;timestamp;P1;durP1;ratioP1;P2;durP2;ratioP2
46006;SDS011;31738;50.188;8.524;2024-01-30T00:01:50;22.00;;;10.80;;
46006;SDS011;31738;50.188;8.524;2024-01-30T00:04:16;22.80;;;11.30;;
46006;SDS011;31738;50.188;8.524;2024-01-30T00:06:42;27.45;;;12.50;;
46006;SDS011;31738;50.188;8.524;2024-01-30T00:09:08;21.73;;;11.00;;
46006;SDS011;31738;50.188;8.524;2024-01-30T00:11:35;17.58;;;10.27;;
46006;SDS011;31738;50.188;8.524;2024-01-30T00:14:00;24.20;;;11.10;;
46006;SDS011;31738;50.188;8.524;2024-01-30T00:16:26;22.50;;;10.55;;
46006;SDS011;31738;50.188;8.524;2024-01-30T00:18:52;27.45;;;12.30;;
46006;SDS011;31738;50.188;8.524;2024-01-30T00:21:19;28.58;;;12.38;;
46006;SDS011;31738;50.188;8.524;2024-01-30T00:23:45;29.20;;;13.90;;
46006;SDS011;31738;50.188;8.524;2024-01-30T00:26:10;27.48;;;13.05;;
46006;SDS011;31738;50.188;8.524;2024-01-30T00:28:37;25.65;;;12.40;;
46006;SDS011;31738;50.188;8.524;2024-01-30T00:31:09;25.45;;;12.65;;
46006;SDS011;31738;50.188;8.524;2024-01-30T00:33:38;23.20;;;11.55;;
46006;SDS011;31738;50.188;8.524;2024-01-30T00:36:04;26.58;;;13.23;;
46006;SDS011;31738;50.188;8.524;2024-01-30T00:38:30;23.85;;;12.73;;
46006;SDS011;31738;50.188;8.524;2024-01-30T00:40:56;22.42;;;12.05;;
46006;SDS011;31738;50.188;8.524;2024-01-30T00:43:21;25.40;;;12.75;;
46006;SDS011;31738;50.188;8.524;2024-01-30T00:45:47;28.83;;;12.80;;
46006;SDS011;31738;50.188;8.524;2024-01-30T00:48:12;23.58;;;12.32;;
46006;SDS011;31738;50.188;8.524;2024-01-30T00:50:38;23.95;;;12.10;;
46006;SDS011;31738;50.188;8.524;2024-01-30T00:53:03;28.67;;;13.13;;
46006;SDS011;31738;50.188;8.524;2024-01-30T00:55:29;26.27;;;13.02;;
46006;SDS011;31738;50.188;8.524;2024-01-30T00:57:54;33.80;;;13.85;;
46006;SDS011;31738;50.188;8.524;2024-01-30T01:00:19;32.40;;;13.98;;
46006;SDS011;31738;50.188;8.524;2024-01-30T01:02:46;31.05;;;14.63;;
46006;SDS011;31738;50.188;8.524;2024-01-30T01:05:11;34.90;;;16.05;;
46006;SDS011;31738;50.188;8.524;2024-01-30T01:07:37;31.90;;;14.85;;
46006;SDS011;31738;50.188;8.524;2024-01-30T01:10:02;28.80;;;15.20;;
46006;SDS011;31738;50.188;8.524;2024-01-30T01:12:29;35.00;;;15.88;;
46006;SDS011;31738;50.188;8.524;2024-01-30T01:14:54;29.38;;;14.13;;
46006;SDS011;31738;50.188;8.524;2024-01-30T01:17:20;30.02;;;15.10;;
46006;SDS011;31738;50.188;8.524;2024-01-30T01:19:45;32.28;;;14.90;;
46006;SDS011;31738;50.188;8.524;2024-01-30T01:22:10;29.83;;;14.65;;
46006;SDS011;31738;50.188;8.524;2024-01-30T01:24:36;28.42;;;14.27;;
46006;SDS011;31738;50.188;8.524;2024-01-30T01:27:01;32.72;;;15.07;;
46006;SDS011;31738;50.188;8.524;2024-01-30T01:29:27;31.83;;;14.30;;
46006;SDS011;31738;50.188;8.524;2024-01-30T01:31:56;33.63;;;15.43;;
46006;SDS011;31738;50.188;8.524;2024-01-30T01:34:21;33.80;;;15.48;;
46006;SDS011;31738;50.188;8.524;2024-01-30T01:36:47;30.33;;;15.15;;
46006;SDS011;31738;50.188;8.524;2024-01-30T01:39:13;31.33;;;14.07;;
46006;SDS011;31738;50.188;8.524;2024-01-30T01:41:38;28.67;;;14.20;;
46006;SDS011;31738;50.188;8.524;2024-01-30T01:44:04;30.73;;;15.45;;
46006;SDS011;31738;50.188;8.524;2024-01-30T01:46:31;28.42;;;14.50;;
46006;SDS011;31738;50.188;8.524;2024-01-30T01:48:58;27.80;;;14.77;;
46006;SDS011;31738;50.188;8.524;2024-01-30T01:51:26;30.13;;;15.05;;
46006;SDS011;31738;50.188;8.524;2024-01-30T01:53:53;31.63;;;14.57;;
46006;SDS011;31738;50.188;8.524;2024-01-30T01:56:20;34.20;;;15.25;;
46006;SDS011;31738;50.188;8.524;2024-01-30T01:58:46;30.90;;;15.23;;
46006;SDS011;31738;50.188;8.524;2024-01-30T02:01:13;32.70;;;15.82;;
46006;SDS011;31738;50.188;8.524;2024-01-30T02:03:39;32.20;;;14.65;;
46006;SDS011;31738;50.188;8.524;2024-01-30T02:06:06;28.33;;;15.55;;
46006;SDS011;31738;50.188;8.524;2024-01-30T02:08:31;31.40;;;15.52;;
46006;SDS011;31738;50.188;8.524;2024-01-30T02:10:57;31.90;;;16.08;;
46006;SDS011;31738;50.188;8.524;2024-01-30T02:13:23;35.90;;;16.10;;
46006;SDS011;31738;50.188;8.524;2024-01-30T02:15:49;34.22;;;15.25;;
46006;SDS011;31738;50.188;8.524;2024-01-30T02:20:52;33.58;;;15.25;;
46006;SDS011;31738;50.188;8.524;2024-01-30T02:23:19;30.10;;;14.90;;
46006;SDS011;31738;50.188;8.524;2024-01-30T02:25:45;29.48;;;15.35;;
46006;SDS011;31738;50.188;8.524;2024-01-30T02:28:11;30.33;;;15.25;;
46006;SDS011;31738;50.188;8.524;2024-01-30T02:30:37;35.30;;;15.82;;
46006;SDS011;31738;50.188;8.524;2024-01-30T02:37:10;26.45;;;13.70;;
46006;SDS011;31738;50.188;8.524;2024-01-30T02:39:35;29.77;;;15.88;;
46006;SDS011;31738;50.188;8.524;2024-01-30T02:42:01;27.08;;;14.20;;
46006;SDS011;31738;50.188;8.524;2024-01-30T02:44:26;39.80;;;16.40;;
46006;SDS011;31738;50.188;8.524;2024-01-30T02:46:52;29.52;;;15.45;;
46006;SDS011;31738;50.188;8.524;2024-01-30T02:49:19;24.83;;;14.38;;
46006;SDS011;31738;50.188;8.524;2024-01-30T02:51:45;34.95;;;15.35;;
46006;SDS011;31738;50.188;8.524;2024-01-30T02:54:10;30.02;;;15.07;;
46006;SDS011;31738;50.188;8.524;2024-01-30T02:56:36;33.30;;;15.32;;
46006;SDS011;31738;50.188;8.524;2024-01-30T02:59:01;31.58;;;15.15;;
46006;SDS011;31738;50.188;8.524;2024-01-30T03:01:27;34.65;;;15.73;;
46006;SDS011;31738;50.188;8.524;2024-01-30T03:03:52;28.92;;;14.85;;
46006;SDS011;31738;50.188;8.524;2024-01-30T03:06:17;31.55;;;13.98;;
46006;SDS011;31738;50.188;8.524;2024-01-30T03:08:45;30.60;;;14.30;;
46006;SDS011;31738;50.188;8.524;2024-01-30T03:11:11;32.17;;;15.25;;
46006;SDS011;31738;50.188;8.524;2024-01-30T03:13:36;31.63;;;14.93;;
46006;SDS011;31738;50.188;8.524;2024-01-30T03:16:02;32.45;;;14.85;;
46006;SDS011;31738;50.188;8.524;2024-01-30T03:18:28;27.75;;;14.35;;
46006;SDS011;31738;50.188;8.524;2024-01-30T03:20:53;31.25;;;15.73;;
46006;SDS011;31738;50.188;8.524;2024-01-30T03:23:18;37.20;;;16.30;;
46006;SDS011;31738;50.188;8.524;2024-01-30T03:25:44;33.05;;;16.15;;
46006;SDS011;31738;50.188;8.524;2024-01-30T03:28:09;33.80;;;15.77;;
46006;SDS011;31738;50.188;8.524;2024-01-30T03:30:35;31.98;;;16.90;;
46006;SDS011;31738;50.188;8.524;2024-01-30T03:33:00;35.50;;;14.82;;
46006;SDS011;31738;50.188;8.524;2024-01-30T03:35:26;34.80;;;16.23;;
46006;SDS011;31738;50.188;8.524;2024-01-30T03:37:51;34.22;;;15.70;;
46006;SDS011;31738;50.188;8.524;2024-01-30T03:40:17;40.20;;;17.10;;
46006;SDS011;31738;50.188;8.524;2024-01-30T03:42:42;32.25;;;14.60;;
46006;SDS011;31738;50.188;8.524;2024-01-30T03:45:08;32.00;;;16.70;;
46006;SDS011;31738;50.188;8.524;2024-01-30T03:47:34;38.08;;;18.15;;
46006;SDS011;31738;50.188;8.524;2024-01-30T03:49:59;37.67;;;16.70;;
46006;SDS011;31738;50.188;8.524;2024-01-30T03:52:25;36.20;;;15.57;;
46006;SDS011;31738;50.188;8.524;2024-01-30T03:54:50;37.40;;;16.80;;
46006;SDS011;31738;50.188;8.524;2024-01-30T03:57:15;30.75;;;14.77;;
46006;SDS011;31738;50.188;8.524;2024-01-30T03:59:42;30.52;;;15.00;;
46006;SDS011;31738;50.188;8.524;2024-01-30T04:02:07;37.05;;;15.73;;
46006;SDS011;31738;50.188;8.524;2024-01-30T04:04:33;33.05;;;15.93;;
46006;SDS011;31738;50.188;8.524;2024-01-30T04:06:58;34.13;;;15.25;;
46006;SDS011;31738;50.188;8.524;2024-01-30T04:09:24;33.72;;;15.70;;
46006;SDS011;31738;50.188;8.524;2024-01-30T04:11:51;33.60;;;15.70;;
46006;SDS011;31738;50.188;8.524;2024-01-30T04:14:17;34.63;;;16.38;;
46006;SDS011;31738;50.188;8.524;2024-01-30T04:16:42;35.55;;;16.67;;
46006;SDS011;31738;50.188;8.524;2024-01-30T04:19:08;34.40;;;17.05;;
46006;SDS011;31738;50.188;8.524;2024-01-30T04:21:33;33.75;;;15.80;;
46006;SDS011;31738;50.188;8.524;2024-01-30T04:23:59;38.60;;;17.27;;
46006;SDS011;31738;50.188;8.524;2024-01-30T04:26:24;36.38;;;16.00;;
46006;SDS011;31738;50.188;8.524;2024-01-30T04:28:50;39.95;;;16.95;;
46006;SDS011;31738;50.188;8.524;2024-01-30T04:31:15;32.13;;;15.95;;
46006;SDS011;31738;50.188;8.524;2024-01-30T04:33:40;31.52;;;16.55;;
46006;SDS011;31738;50.188;8.524;2024-01-30T04:36:08;35.20;;;16.80;;
46006;SDS011;31738;50.188;8.524;2024-01-30T04:38:35;31.92;;;15.60;;
46006;SDS011;31738;50.188;8.524;2024-01-30T04:41:01;34.55;;;16.23;;
46006;SDS011;31738;50.188;8.524;2024-01-30T04:43:26;36.60;;;16.63;;
46006;SDS011;31738;50.188;8.524;2024-01-30T04:45:52;33.53;;;15.88;;
46006;SDS011;31738;50.188;8.524;2024-01-30T04:48:18;35.10;;;15.77;;
46006;SDS011;31738;50.188;8.524;2024-01-30T04:50:43;33.45;;;15.75;;
46006;SDS011;31738;50.188;8.524;2024-01-30T04:53:09;33.53;;;14.95;;
46006;SDS011;31738;50.188;8.524;2024-01-30T04:55:35;31.08;;;15.05;;
46006;SDS011;31738;50.188;8.524;2024-01-30T04:58:01;36.33;;;15.82;;
46006;SDS011;31738;50.188;8.524;2024-01-30T05:00:27;32.72;;;15.93;;
46006;SDS011;31738;50.188;8.524;2024-01-30T05:02:52;35.67;;;16.13;;
46006;SDS011;31738;50.188;8.524;2024-01-30T05:05:20;35.08;;;16.50;;
46006;SDS011;31738;50.188;8.524;2024-01-30T05:07:46;34.17;;;15.35;;
46006;SDS011;31738;50.188;8.524;2024-01-30T05:10:12;33.38;;;15.40;;
46006;SDS011;31738;50.188;8.524;2024-01-30T05:12:38;35.63;;;16.25;;
46006;SDS011;31738;50.188;8.524;2024-01-30T05:15:04;33.72;;;16.20;;
46006;SDS011;31738;50.188;8.524;2024-01-30T05:17:30;38.70;;;15.63;;
46006;SDS011;31738;50.188;8.524;2024-01-30T05:19:55;33.83;;;16.23;;
46006;SDS011;31738;50.188;8.524;2024-01-30T05:22:21;32.70;;;15.15;;
46006;SDS011;31738;50.188;8.524;2024-01-30T05:24:46;32.97;;;16.05;;
46006;SDS011;31738;50.188;8.524;2024-01-30T05:27:12;33.58;;;16.05;;
46006;SDS011;31738;50.188;8.524;2024-01-30T05:29:39;35.03;;;15.93;;
46006;SDS011;31738;50.188;8.524;2024-01-30T05:32:05;34.75;;;16.00;;
46006;SDS011;31738;50.188;8.524;2024-01-30T05:34:31;31.52;;;15.43;;
46006;SDS011;31738;50.188;8.524;2024-01-30T05:36:56;34.50;;;14.82;;
46006;SDS011;31738;50.188;8.524;2024-01-30T05:39:22;36.97;;;15.48;;
46006;SDS011;31738;50.188;8.524;2024-01-30T05:41:47;31.92;;;15.57;;
46006;SDS011;31738;50.188;8.524;2024-01-30T05:44:13;31.02;;;14.40;;
46006;SDS011;31738;50.188;8.524;2024-01-30T05:46:38;29.23;;;14.60;;
46006;SDS011;31738;50.188;8.524;2024-01-30T05:49:04;27.45;;;14.20;;
46006;SDS011;31738;50.188;8.524;2024-01-30T05:51:29;33.80;;;14.70;;
46006;SDS011;31738;50.188;8.524;2024-01-30T05:53:55;38.00;;;16.40;;
46006;SDS011;31738;50.188;8.524;2024-01-30T05:56:20;32.58;;;14.40;;
46006;SDS011;31738;50.188;8.524;2024-01-30T05:58:46;32.97;;;15.60;;
46006;SDS011;31738;50.188;8.524;2024-01-30T06:01:11;35.45;;;15.80;;
46006;SDS011;31738;50.188;8.524;2024-01-30T06:03:37;28.67;;;15.18;;
46006;SDS011;31738;50.188;8.524;2024-01-30T06:06:04;30.88;;;14.65;;
46006;SDS011;31738;50.188;8.524;2024-01-30T06:08:29;33.65;;;14.88;;
46006;SDS011;31738;50.188;8.524;2024-01-30T06:10:55;31.35;;;14.45;;
46006;SDS011;31738;50.188;8.524;2024-01-30T06:13:20;32.58;;;16.15;;
46006;SDS011;31738;50.188;8.524;2024-01-30T06:15:46;34.38;;;15.43;;
46006;SDS011;31738;50.188;8.524;2024-01-30T06:18:11;32.40;;;15.77;;
46006;SDS011;31738;50.188;8.524;2024-01-30T06:20:37;31.70;;;15.18;;
46006;SDS011;31738;50.188;8.524;2024-01-30T06:23:02;31.23;;;16.02;;
46006;SDS011;31738;50.188;8.524;2024-01-30T06:25:28;42.00;;;17.88;;
46006;SDS011;31738;50.188;8.524;2024-01-30T06:27:54;31.58;;;15.30;;
46006;SDS011;31738;50.188;8.524;2024-01-30T06:30:19;29.13;;;15.10;;
46006;SDS011;31738;50.188;8.524;2024-01-30T06:32:44;33.75;;;16.15;;
46006;SDS011;31738;50.188;8.524;2024-01-30T06:35:10;32.80;;;15.90;;
46006;SDS011;31738;50.188;8.524;2024-01-30T06:37:36;31.45;;;15.90;;
46006;SDS011;31738;50.188;8.524;2024-01-30T06:40:02;37.15;;;16.17;;
46006;SDS011;31738;50.188;8.524;2024-01-30T06:42:30;36.92;;;17.20;;
46006;SDS011;31738;50.188;8.524;2024-01-30T06:44:55;35.42;;;16.73;;
46006;SDS011;31738;50.188;8.524;2024-01-30T06:47:21;40.92;;;17.80;;
46006;SDS011;31738;50.188;8.524;2024-01-30T06:49:46;37.40;;;17.52;;
46006;SDS011;31738;50.188;8.524;2024-01-30T06:52:11;31.35;;;16.02;;
46006;SDS011;31738;50.188;8.524;2024-01-30T06:54:37;36.70;;;17.33;;
46006;SDS011;31738;50.188;8.524;2024-01-30T06:57:03;40.50;;;18.42;;
46006;SDS011;31738;50.188;8.524;2024-01-30T06:59:28;39.97;;;18.70;;
46006;SDS011;31738;50.188;8.524;2024-01-30T07:01:54;39.60;;;18.45;;
46006;SDS011;31738;50.188;8.524;2024-01-30T07:04:19;39.80;;;18.90;;
46006;SDS011;31738;50.188;8.524;2024-01-30T07:06:45;36.60;;;18.27;;
46006;SDS011;31738;50.188;8.524;2024-01-30T07:09:10;44.28;;;19.15;;
46006;SDS011;31738;50.188;8.524;2024-01-30T07:11:37;42.40;;;19.25;;
46006;SDS011;31738;50.188;8.524;2024-01-30T07:14:02;39.08;;;18.67;;
46006;SDS011;31738;50.188;8.524;2024-01-30T07:16:31;41.00;;;18.73;;
46006;SDS011;31738;50.188;8.524;2024-01-30T07:18:56;40.50;;;19.70;;
46006;SDS011;31738;50.188;8.524;2024-01-30T07:21:22;39.15;;;19.10;;
46006;SDS011;31738;50.188;8.524;2024-01-30T07:23:53;44.95;;;21.27;;
46006;SDS011;31738;50.188;8.524;2024-01-30T07:26:21;60.55;;;25.50;;
46006;SDS011;31738;50.188;8.524;2024-01-30T07:28:47;44.25;;;19.00;;
46006;SDS011;31738;50.188;8.524;2024-01-30T07:31:12;46.00;;;19.52;;
46006;SDS011;31738;50.188;8.524;2024-01-30T07:33:38;38.72;;;18.52;;
46006;SDS011;31738;50.188;8.524;2024-01-30T07:36:03;40.90;;;19.35;;
46006;SDS011;31738;50.188;8.524;2024-01-30T07:38:31;41.50;;;19.20;;
46006;SDS011;31738;50.188;8.524;2024-01-30T07:40:57;41.75;;;20.27;;
46006;SDS011;31738;50.188;8.524;2024-01-30T07:43:22;42.25;;;19.15;;
46006;SDS011;31738;50.188;8.524;2024-01-30T07:45:48;48.20;;;20.92;;
46006;SDS011;31738;50.188;8.524;2024-01-30T07:48:13;44.22;;;20.25;;
46006;SDS011;31738;50.188;8.524;2024-01-30T07:50:39;51.70;;;21.35;;
46006;SDS011;31738;50.188;8.524;2024-01-30T07:53:04;52.67;;;21.88;;
46006;SDS011;31738;50.188;8.524;2024-01-30T07:55:30;48.45;;;21.08;;
46006;SDS011;31738;50.188;8.524;2024-01-30T07:57:57;45.05;;;22.33;;
46006;SDS011;31738;50.188;8.524;2024-01-30T08:00:22;49.35;;;21.30;;
46006;SDS011;31738;50.188;8.524;2024-01-30T08:02:48;52.92;;;22.58;;
46006;SDS011;31738;50.188;8.524;2024-01-30T08:05:13;58.38;;;23.45;;
46006;SDS011;31738;50.188;8.524;2024-01-30T08:07:41;50.58;;;21.83;;
46006;SDS011;31738;50.188;8.524;2024-01-30T08:10:08;51.67;;;22.50;;
46006;SDS011;31738;50.188;8.524;2024-01-30T08:12:33;55.08;;;24.17;;
46006;SDS011;31738;50.188;8.524;2024-01-30T08:14:59;53.47;;;22.30;;
46006;SDS011;31738;50.188;8.524;2024-01-30T08:17:24;47.22;;;22.55;;
46006;SDS011;31738;50.188;8.524;2024-01-30T08:19:50;44.78;;;21.55;;
46006;SDS011;31738;50.188;8.524;2024-01-30T08:22:15;45.90;;;21.02;;
46006;SDS011;31738;50.188;8.524;2024-01-30T08:24:41;50.83;;;22.42;;
46006;SDS011;31738;50.188;8.524;2024-01-30T08:27:06;50.95;;;22.65;;
46006;SDS011;31738;50.188;8.524;2024-01-30T08:29:35;55.67;;;23.48;;
46006;SDS011;31738;50.188;8.524;2024-01-30T08:32:00;44.42;;;21.85;;
46006;SDS011;31738;50.188;8.524;2024-01-30T08:34:26;51.92;;;23.75;;
46006;SDS011;31738;50.188;8.524;2024-01-30T08:36:52;52.80;;;23.17;;
46006;SDS011;31738;50.188;8.524;2024-01-30T08:39:18;49.42;;;21.67;;
46006;SDS011;31738;50.188;8.524;2024-01-30T08:41:43;52.42;;;23.23;;
46006;SDS011;31738;50.188;8.524;2024-01-30T08:44:09;50.20;;;23.08;;
46006;SDS011;31738;50.188;8.524;2024-01-30T08:46:36;53.00;;;23.13;;
46006;SDS011;31738;50.188;8.524;2024-01-30T08:49:02;54.90;;;24.25;;
46006;SDS011;31738;50.188;8.524;2024-01-30T08:51:29;55.20;;;23.80;;
46006;SDS011;31738;50.188;8.524;2024-01-30T08:53:54;49.65;;;24.38;;
46006;SDS011;31738;50.188;8.524;2024-01-30T08:56:20;52.50;;;23.38;;
46006;SDS011;31738;50.188;8.524;2024-01-30T08:58:45;51.33;;;23.30;;
46006;SDS011;31738;50.188;8.524;2024-01-30T09:01:11;46.47;;;22.80;;
46006;SDS011;31738;50.188;8.524;2024-01-30T09:03:36;49.90;;;23.55;;
46006;SDS011;31738;50.188;8.524;2024-01-30T09:06:07;48.28;;;23.75;;
46006;SDS011;31738;50.188;8.524;2024-01-30T09:08:35;45.50;;;23.05;;
46006;SDS011;31738;50.188;8.524;2024-01-30T09:11:02;45.28;;;22.98;;
46006;SDS011;31738;50.188;8.524;2024-01-30T09:13:33;48.15;;;22.80;;
46006;SDS011;31738;50.188;8.524;2024-01-30T09:15:59;47.47;;;23.38;;
46006;SDS011;31738;50.188;8.524;2024-01-30T09:18:24;55.38;;;22.40;;
46006;SDS011;31738;50.188;8.524;2024-01-30T09:20:50;50.40;;;23.55;;
46006;SDS011;31738;50.188;8.524;2024-01-30T09:23:15;49.65;;;23.02;;
46006;SDS011;31738;50.188;8.524;2024-01-30T09:25:42;49.33;;;23.27;;
46006;SDS011;31738;50.188;8.524;2024-01-30T09:28:08;48.35;;;23.10;;
46006;SDS011;31738;50.188;8.524;2024-01-30T09:30:34;44.75;;;22.60;;
46006;SDS011;31738;50.188;8.524;2024-01-30T09:32:59;50.35;;;23.58;;
46006;SDS011;31738;50.188;8.524;2024-01-30T09:35:24;48.85;;;23.25;;
46006;SDS011;31738;50.188;8.524;2024-01-30T09:37:50;46.38;;;23.15;;
46006;SDS011;31738;50.188;8.524;2024-01-30T09:40:17;49.50;;;23.75;;
46006;SDS011;31738;50.188;8.524;2024-01-30T09:42:46;49.53;;;23.73;;
46006;SDS011;31738;50.188;8.524;2024-01-30T09:45:13;45.85;;;22.42;;
46006;SDS011;31738;50.188;8.524;2024-01-30T09:47:40;48.95;;;23.65;;
46006;SDS011;31738;50.188;8.524;2024-01-30T09:50:08;43.10;;;23.23;;
46006;SDS011;31738;50.188;8.524;2024-01-30T09:52:35;48.47;;;23.90;;
46006;SDS011;31738;50.188;8.524;2024-01-30T09:55:00;48.00;;;24.13;;
46006;SDS011;31738;50.188;8.524;2024-01-30T09:57:26;51.97;;;24.48;;
46006;SDS011;31738;50.188;8.524;2024-01-30T09:59:52;47.20;;;23.02;;
46006;SDS011;31738;50.188;8.524;2024-01-30T10:02:19;47.70;;;23.95;;
46006;SDS011;31738;50.188;8.524;2024-01-30T10:04:47;43.58;;;23.08;;
46006;SDS011;31738;50.188;8.524;2024-01-30T10:07:13;41.92;;;22.67;;
46006;SDS011;31738;50.188;8.524;2024-01-30T10:09:39;43.63;;;22.38;;
46006;SDS011;31738;50.188;8.524;2024-01-30T10:12:05;45.13;;;22.60;;
46006;SDS011;31738;50.188;8.524;2024-01-30T10:14:31;41.63;;;21.50;;
46006;SDS011;31738;50.188;8.524;2024-01-30T10:16:57;38.05;;;21.30;;
46006;SDS011;31738;50.188;8.524;2024-01-30T10:19:23;40.90;;;21.13;;
46006;SDS011;31738;50.188;8.524;2024-01-30T10:21:49;36.33;;;20.20;;
46006;SDS011;31738;50.188;8.524;2024-01-30T10:24:14;37.92;;;20.85;;
46006;SDS011;31738;50.188;8.524;2024-01-30T10:26:40;39.85;;;21.23;;
46006;SDS011;31738;50.188;8.524;2024-01-30T10:29:05;44.78;;;21.50;;
46006;SDS011;31738;50.188;8.524;2024-01-30T10:31:31;42.40;;;21.60;;
46006;SDS011;31738;50.188;8.524;2024-01-30T10:33:56;41.50;;;21.40;;
46006;SDS011;31738;50.188;8.524;2024-01-30T10:36:24;36.90;;;20.45;;
46006;SDS011;31738;50.188;8.524;2024-01-30T10:38:54;39.47;;;20.98;;
46006;SDS011;31738;50.188;8.524;2024-01-30T10:41:24;43.08;;;21.20;;
46006;SDS011;31738;50.188;8.524;2024-01-30T10:44:02;37.53;;;19.60;;
46006;SDS011;31738;50.188;8.524;2024-01-30T10:46:33;42.58;;;20.80;;
46006;SDS011;31738;50.188;8.524;2024-01-30T10:49:00;42.25;;;21.17;;
46006;SDS011;31738;50.188;8.524;2024-01-30T10:51:26;37.50;;;20.25;;
46006;SDS011;31738;50.188;8.524;2024-01-30T10:53:52;39.40;;;21.35;;
46006;SDS011;31738;50.188;8.524;2024-01-30T10:56:22;43.58;;;21.42;;
46006;SDS011;31738;50.188;8.524;2024-01-30T10:58:51;39.45;;;20.55;;
46006;SDS011;31738;50.188;8.524;2024-01-30T11:01:18;45.55;;;21.33;;
46006;SDS011;31738;50.188;8.524;2024-01-30T11:03:45;41.35;;;21.05;;
46006;SDS011;31738;50.188;8.524;2024-01-30T11:06:11;43.78;;;21.05;;
46006;SDS011;31738;50.188;8.524;2024-01-30T11:08:39;39.45;;;20.80;;
46006;SDS011;31738;50.188;8.524;2024-01-30T11:11:08;41.63;;;20.23;;
46006;SDS011;31738;50.188;8.524;2024-01-30T11:13:34;36.92;;;19.52;;
46006;SDS011;31738;50.188;8.524;2024-01-30T11:16:00;42.88;;;20.20;;
46006;SDS011;31738;50.188;8.524;2024-01-30T11:18:30;37.88;;;19.10;;
46006;SDS011;31738;50.188;8.524;2024-01-30T11:20:57;38.25;;;18.08;;
46006;SDS011;31738;50.188;8.524;2024-01-30T11:23:25;35.60;;;18.45;;
46006;SDS011;31738;50.188;8.524;2024-01-30T11:25:52;36.92;;;19.42;;
46006;SDS011;31738;50.188;8.524;2024-01-30T11:28:17;34.00;;;18.85;;
46006;SDS011;31738;50.188;8.524;2024-01-30T11:30:43;36.83;;;18.40;;
46006;SDS011;31738;50.188;8.524;2024-01-30T11:33:11;34.70;;;18.52;;
46006;SDS011;31738;50.188;8.524;2024-01-30T11:35:39;38.78;;;18.52;;
46006;SDS011;31738;50.188;8.524;2024-01-30T11:38:06;36.97;;;19.25;;
46006;SDS011;31738;50.188;8.524;2024-01-30T11:40:32;36.22;;;18.75;;
46006;SDS011;31738;50.188;8.524;2024-01-30T11:42:59;37.53;;;18.80;;
46006;SDS011;31738;50.188;8.524;2024-01-30T11:45:26;36.15;;;18.83;;
46006;SDS011;31738;50.188;8.524;2024-01-30T11:47:52;39.95;;;19.33;;
46006;SDS011;31738;50.188;8.524;2024-01-30T11:50:18;33.05;;;17.98;;
46006;SDS011;31738;50.188;8.524;2024-01-30T11:52:44;39.15;;;18.85;;
46006;SDS011;31738;50.188;8.524;2024-01-30T11:55:09;33.17;;;18.95;;
46006;SDS011;31738;50.188;8.524;2024-01-30T11:57:35;42.55;;;18.75;;
46006;SDS011;31738;50.188;8.524;2024-01-30T12:00:02;34.10;;;15.85;;
46006;SDS011;31738;50.188;8.524;2024-01-30T12:02:35;33.25;;;16.42;;
46006;SDS011;31738;50.188;8.524;2024-01-30T12:05:07;30.15;;;15.82;;
46006;SDS011;31738;50.188;8.524;2024-01-30T12:07:33;27.63;;;14.88;;
46006;SDS011;31738;50.188;8.524;2024-01-30T12:09:59;29.00;;;16.02;;
46006;SDS011;31738;50.188;8.524;2024-01-30T12:12:26;31.42;;;17.13;;
46006;SDS011;31738;50.188;8.524;2024-01-30T12:14:52;35.35;;;16.85;;
46006;SDS011;31738;50.188;8.524;2024-01-30T12:17:28;30.90;;;16.90;;
46006;SDS011;31738;50.188;8.524;2024-01-30T12:20:11;31.25;;;16.45;;
46006;SDS011;31738;50.188;8.524;2024-01-30T12:22:43;36.17;;;17.23;;
46006;SDS011;31738;50.188;8.524;2024-01-30T12:25:10;29.90;;;15.57;;
46006;SDS011;31738;50.188;8.524;2024-01-30T12:27:37;31.52;;;16.42;;
46006;SDS011;31738;50.188;8.524;2024-01-30T12:30:06;28.38;;;15.52;;
46006;SDS011;31738;50.188;8.524;2024-01-30T12:32:51;32.00;;;16.23;;
46006;SDS011;31738;50.188;8.524;2024-01-30T12:35:17;29.42;;;17.10;;
46006;SDS011;31738;50.188;8.524;2024-01-30T12:37:43;34.17;;;17.25;;
46006;SDS011;31738;50.188;8.524;2024-01-30T12:40:10;33.75;;;15.73;;
46006;SDS011;31738;50.188;8.524;2024-01-30T12:42:38;27.83;;;14.30;;
46006;SDS011;31738;50.188;8.524;2024-01-30T12:45:04;30.05;;;14.55;;
46006;SDS011;31738;50.188;8.524;2024-01-30T12:47:31;22.50;;;12.45;;
46006;SDS011;31738;50.188;8.524;2024-01-30T12:49:57;25.88;;;13.90;;
46006;SDS011;31738;50.188;8.524;2024-01-30T12:52:22;22.88;;;12.20;;
46006;SDS011;31738;50.188;8.524;2024-01-30T12:54:48;30.08;;;14.40;;
46006;SDS011;31738;50.188;8.524;2024-01-30T12:57:15;21.98;;;12.63;;
46006;SDS011;31738;50.188;8.524;2024-01-30T12:59:41;23.88;;;11.52;;
46006;SDS011;31738;50.188;8.524;2024-01-30T13:02:07;18.38;;;9.27;;
46006;SDS011;31738;50.188;8.524;2024-01-30T13:04:33;15.40;;;8.43;;
46006;SDS011;31738;50.188;8.524;2024-01-30T13:06:59;13.52;;;7.43;;
46006;SDS011;31738;50.188;8.524;2024-01-30T13:09:25;14.00;;;8.00;;
46006;SDS011;31738;50.188;8.524;2024-01-30T13:11:51;15.38;;;7.50;;
46006;SDS011;31738;50.188;8.524;2024-01-30T13:14:17;14.18;;;7.30;;
46006;SDS011;31738;50.188;8.524;2024-01-30T13:16:43;16.33;;;7.57;;
46006;SDS011;31738;50.188;8.524;2024-01-30T13:19:09;14.85;;;7.15;;
46006;SDS011;31738;50.188;8.524;2024-01-30T13:21:34;18.02;;;7.68;;
46006;SDS011;31738;50.188;8.524;2024-01-30T13:24:00;13.52;;;7.47;;
46006;SDS011;31738;50.188;8.524;2024-01-30T13:26:25;13.93;;;6.82;;
46006;SDS011;31738;50.188;8.524;2024-01-30T13:28:51;15.07;;;7.80;;
46006;SDS011;31738;50.188;8.524;2024-01-30T13:31:16;17.67;;;7.80;;
46006;SDS011;31738;50.188;8.524;2024-01-30T13:33:42;16.13;;;7.55;;
46006;SDS011;31738;50.188;8.524;2024-01-30T13:36:09;12.75;;;6.95;;
46006;SDS011;31738;50.188;8.524;2024-01-30T13:38:35;15.38;;;8.07;;
46006;SDS011;31738;50.188;8.524;2024-01-30T13:41:01;12.70;;;7.40;;
46006;SDS011;31738;50.188;8.524;2024-01-30T13:43:26;14.50;;;7.28;;
46006;SDS011;31738;50.188;8.524;2024-01-30T13:45:52;17.42;;;7.97;;
46006;SDS011;31738;50.188;8.524;2024-01-30T13:48:18;16.30;;;8.15;;
46006;SDS011;31738;50.188;8.524;2024-01-30T13:50:43;16.08;;;7.93;;
46006;SDS011;31738;50.188;8.524;2024-01-30T13:53:09;15.82;;;7.43;;
46006;SDS011;31738;50.188;8.524;2024-01-30T13:55:34;20.50;;;10.00;;
46006;SDS011;31738;50.188;8.524;2024-01-30T13:58:00;20.27;;;9.98;;
46006;SDS011;31738;50.188;8.524;2024-01-30T14:00:26;18.25;;;9.15;;
46006;SDS011;31738;50.188;8.524;2024-01-30T14:02:52;15.95;;;8.70;;
46006;SDS011;31738;50.188;8.524;2024-01-30T14:05:20;13.57;;;7.43;;
46006;SDS011;31738;50.188;8.524;2024-01-30T14:07:46;16.13;;;7.38;;
46006;SDS011;31738;50.188;8.524;2024-01-30T14:10:12;13.60;;;7.18;;
46006;SDS011;31738;50.188;8.524;2024-01-30T14:12:38;14.07;;;7.30;;
46006;SDS011;31738;50.188;8.524;2024-01-30T14:15:04;14.95;;;7.28;;
46006;SDS011;31738;50.188;8.524;2024-01-30T14:17:30;17.17;;;7.47;;
46006;SDS011;31738;50.188;8.524;2024-01-30T14:19:55;11.27;;;7.13;;
46006;SDS011;31738;50.188;8.524;2024-01-30T14:22:21;14.80;;;7.53;;
46006;SDS011;31738;50.188;8.524;2024-01-30T14:24:47;14.43;;;7.50;;